Ana Sayfa
METAR-TAF:

METAR-TAF

Havaalanları :

Golovin, Alaska, Amerika Birleşik Devletleri

Enlem: 64-32-36N, Boylam: 163-02-22W, yükseklik: 8 m

Güncel hava durumu gözlemi

Rapor saat 04:56 UTC de 1 saat ve 42 dakika önce yapıldı.
Rüzgar kuzeybatıdan 13 kt ve 17 kt'a kadar ani rüzgarlar
Sıcaklık 2°C
Nem 69%
Basınç 1012 hPa
Görüş mesafesi: 16.1 km
4500 ft yükseklikte parçalı çok bulutlu

METAR: PAGL 270456Z AUTO 32013G17KT 10SM BKN045 02/M03 A2989 RMK AO2 SLP118 T00171033 FZRANO

Saat: 22:38 (06:38 UTC)


TAF: eksik

4.000'den fazla havaalanı için hava durumu gözlemleri ve tahminleri (METAR ve TAF raporları).

Kullanılabilir istasyonlar harita üzerinde sarı ve kırmızı noktalarla gösterilir.

İstasyonun adını görmek için fareyi noktanın üzerinde gezdirin.

Sonrasında hava gözlem ve tahminlerini görmek için tıklayın.

Haritayı değiştirmek için: yaklaştırmak için siyah artı işaretli yeşil düğmeye ve uzaklaştırmak için de eksi işaretli düğmeye hızla tıklayın; bitişik haritalar için yeşil okları kullanın.


METAR-TAF: